sensor_id;sensor_type;location;lat;lon;timestamp;pressure;altitude;pressure_sealevel;temperature;humidity
10145;BME280;5113;41.822;23.564;2022-08-05T00:01:32;-11337.78;;;14.58;100.00
10145;BME280;5113;41.822;23.564;2022-08-05T00:04:40;-11334.38;;;14.45;100.00
10145;BME280;5113;41.822;23.564;2022-08-05T00:07:48;-11334.09;;;14.44;100.00
10145;BME280;5113;41.822;23.564;2022-08-05T00:11:08;-11348.19;;;14.95;100.00
10145;BME280;5113;41.822;23.564;2022-08-05T00:14:31;-11364.69;;;15.55;100.00
10145;BME280;5113;41.822;23.564;2022-08-05T00:17:38;-11365.38;;;15.57;100.00
10145;BME280;5113;41.822;23.564;2022-08-05T00:20:45;-11349.31;;;14.99;100.00
10145;BME280;5113;41.822;23.564;2022-08-05T00:23:52;-11351.84;;;15.08;100.00
10145;BME280;5113;41.822;23.564;2022-08-05T00:27:16;-11352.13;;;15.09;100.00
10145;BME280;5113;41.822;23.564;2022-08-05T00:30:23;-11341.44;;;14.71;100.00
10145;BME280;5113;41.822;23.564;2022-08-05T00:33:36;-11328.63;;;14.25;100.00
10145;BME280;5113;41.822;23.564;2022-08-05T00:37:02;-11317.34;;;13.84;100.00
10145;BME280;5113;41.822;23.564;2022-08-05T00:40:17;-11308.19;;;13.51;100.00
10145;BME280;5113;41.822;23.564;2022-08-05T00:43:34;-11318.19;;;13.87;100.00
10145;BME280;5113;41.822;23.564;2022-08-05T00:46:53;-11320.31;;;13.95;100.00
10145;BME280;5113;41.822;23.564;2022-08-05T00:50:08;-11335.50;;;14.49;100.00
10145;BME280;5113;41.822;23.564;2022-08-05T00:53:19;-11329.59;;;14.28;100.00
10145;BME280;5113;41.822;23.564;2022-08-05T00:56:45;-11324.25;;;14.09;100.00
10145;BME280;5113;41.822;23.564;2022-08-05T00:59:57;-11326.22;;;14.16;100.00
10145;BME280;5113;41.822;23.564;2022-08-05T01:03:04;-11305.66;;;13.42;100.00
10145;BME280;5113;41.822;23.564;2022-08-05T01:06:11;-11306.50;;;13.45;100.00
10145;BME280;5113;41.822;23.564;2022-08-05T01:09:19;-11304.97;;;13.39;100.00
10145;BME280;5113;41.822;23.564;2022-08-05T01:12:26;-11309.19;;;13.54;100.00
10145;BME280;5113;41.822;23.564;2022-08-05T01:15:42;-11309.75;;;13.57;100.00
10145;BME280;5113;41.822;23.564;2022-08-05T01:19:00;-11311.00;;;13.61;100.00
10145;BME280;5113;41.822;23.564;2022-08-05T01:22:29;-11311.00;;;13.61;100.00
10145;BME280;5113;41.822;23.564;2022-08-05T01:25:52;-11301.16;;;13.26;100.00
10145;BME280;5113;41.822;23.564;2022-08-05T01:29:03;-11298.06;;;13.14;100.00
10145;BME280;5113;41.822;23.564;2022-08-05T01:32:15;-11299.19;;;13.18;100.00
10145;BME280;5113;41.822;23.564;2022-08-05T01:35:26;-11294.13;;;13.00;100.00
10145;BME280;5113;41.822;23.564;2022-08-05T01:38:55;-11306.66;;;13.45;100.00
10145;BME280;5113;41.822;23.564;2022-08-05T01:42:06;-11320.72;;;13.96;100.00
10145;BME280;5113;41.822;23.564;2022-08-05T01:45:19;-11317.22;;;13.83;100.00
10145;BME280;5113;41.822;23.564;2022-08-05T01:48:26;-11323.69;;;14.07;100.00
10145;BME280;5113;41.822;23.564;2022-08-05T01:51:36;-11300.75;;;13.24;100.00
10145;BME280;5113;41.822;23.564;2022-08-05T01:54:45;-11301.16;;;13.26;100.00
10145;BME280;5113;41.822;23.564;2022-08-05T01:57:56;-11304.41;;;13.37;100.00
10145;BME280;5113;41.822;23.564;2022-08-05T02:01:19;-11316.78;;;13.82;100.00
10145;BME280;5113;41.822;23.564;2022-08-05T02:04:30;-11322.28;;;14.02;100.00
10145;BME280;5113;41.822;23.564;2022-08-05T02:07:40;-11331.16;;;14.34;100.00
10145;BME280;5113;41.822;23.564;2022-08-05T02:11:07;-11336.22;;;14.52;100.00
10145;BME280;5113;41.822;23.564;2022-08-05T02:14:19;-11334.09;;;14.44;100.00
10145;BME280;5113;41.822;23.564;2022-08-05T02:17:32;-11336.38;;;14.52;100.00
10145;BME280;5113;41.822;23.564;2022-08-05T02:21:03;-11328.19;;;14.23;100.00
10145;BME280;5113;41.822;23.564;2022-08-05T02:24:21;-11329.31;;;14.27;100.00
10145;BME280;5113;41.822;23.564;2022-08-05T02:27:29;-11328.75;;;14.25;100.00
10145;BME280;5113;41.822;23.564;2022-08-05T02:30:59;-11331.56;;;14.35;100.00
10145;BME280;5113;41.822;23.564;2022-08-05T02:34:09;-11329.19;;;14.27;100.00
10145;BME280;5113;41.822;23.564;2022-08-05T02:37:17;-11322.13;;;14.01;100.00
10145;BME280;5113;41.822;23.564;2022-08-05T02:40:25;-11300.88;;;13.25;100.00
10145;BME280;5113;41.822;23.564;2022-08-05T02:43:32;-11296.09;;;13.07;100.00
10145;BME280;5113;41.822;23.564;2022-08-05T02:46:59;-11304.25;;;13.37;100.00
10145;BME280;5113;41.822;23.564;2022-08-05T02:50:11;-11292.28;;;12.94;100.00
10145;BME280;5113;41.822;23.564;2022-08-05T02:53:22;-11280.88;;;12.52;100.00
10145;BME280;5113;41.822;23.564;2022-08-05T02:56:33;-11269.91;;;12.13;100.00
10145;BME280;5113;41.822;23.564;2022-08-05T02:59:41;-11271.31;;;12.18;100.00
10145;BME280;5113;41.822;23.564;2022-08-05T03:02:56;-11267.53;;;12.04;100.00
10145;BME280;5113;41.822;23.564;2022-08-05T03:06:04;-11283.28;;;12.61;100.00
10145;BME280;5113;41.822;23.564;2022-08-05T03:09:31;-11278.22;;;12.43;100.00
10145;BME280;5113;41.822;23.564;2022-08-05T03:12:42;-11268.09;;;12.06;100.00
10145;BME280;5113;41.822;23.564;2022-08-05T03:15:55;-11264.00;;;11.92;100.00
10145;BME280;5113;41.822;23.564;2022-08-05T03:19:01;-11277.78;;;12.41;100.00
10145;BME280;5113;41.822;23.564;2022-08-05T03:22:29;-11282.44;;;12.58;100.00
10145;BME280;5113;41.822;23.564;2022-08-05T03:25:38;-11295.53;;;13.05;100.00
10145;BME280;5113;41.822;23.564;2022-08-05T03:29:05;-11282.44;;;12.58;100.00
10145;BME280;5113;41.822;23.564;2022-08-05T03:32:17;-11290.75;;;12.88;100.00
10145;BME280;5113;41.822;23.564;2022-08-05T03:35:32;-11282.56;;;12.59;100.00
10145;BME280;5113;41.822;23.564;2022-08-05T03:38:46;-11283.13;;;12.61;100.00
10145;BME280;5113;41.822;23.564;2022-08-05T03:41:56;-11277.50;;;12.40;100.00
10145;BME280;5113;41.822;23.564;2022-08-05T03:45:06;-11265.13;;;11.96;100.00
10145;BME280;5113;41.822;23.564;2022-08-05T03:48:26;-11260.63;;;11.79;100.00
10145;BME280;5113;41.822;23.564;2022-08-05T03:51:37;-11259.63;;;11.76;100.00
10145;BME280;5113;41.822;23.564;2022-08-05T03:55:07;-11268.22;;;12.07;100.00
10145;BME280;5113;41.822;23.564;2022-08-05T03:58:36;-11268.38;;;12.07;100.00
10145;BME280;5113;41.822;23.564;2022-08-05T04:01:46;-11289.63;;;12.84;100.00
10145;BME280;5113;41.822;23.564;2022-08-05T04:04:55;-11298.34;;;13.15;100.00
10145;BME280;5113;41.822;23.564;2022-08-05T04:08:04;-11307.06;;;13.47;100.00
10145;BME280;5113;41.822;23.564;2022-08-05T04:11:33;-11313.56;;;13.70;100.00
10145;BME280;5113;41.822;23.564;2022-08-05T04:14:51;-11319.19;;;13.91;100.00
10145;BME280;5113;41.822;23.564;2022-08-05T04:18:01;-11309.19;;;13.54;100.00
10145;BME280;5113;41.822;23.564;2022-08-05T04:21:11;-11309.03;;;13.54;100.00
10145;BME280;5113;41.822;23.564;2022-08-05T04:24:38;-11307.34;;;13.48;100.00
10145;BME280;5113;41.822;23.564;2022-08-05T04:27:49;-11308.75;;;13.53;100.00
10145;BME280;5113;41.822;23.564;2022-08-05T04:31:01;-11320.44;;;13.95;100.00
10145;BME280;5113;41.822;23.564;2022-08-05T04:34:14;-11329.03;;;14.26;100.00
10145;BME280;5113;41.822;23.564;2022-08-05T04:37:36;-11340.72;;;14.68;100.00
10145;BME280;5113;41.822;23.564;2022-08-05T04:41:03;-11329.75;;;14.29;100.00
10145;BME280;5113;41.822;23.564;2022-08-05T04:44:12;-11329.59;;;14.28;100.00
10145;BME280;5113;41.822;23.564;2022-08-05T04:47:28;-11338.47;;;14.60;100.00
10145;BME280;5113;41.822;23.564;2022-08-05T04:50:47;-11348.63;;;14.97;100.00
10145;BME280;5113;41.822;23.564;2022-08-05T04:54:13;-11340.44;;;14.67;100.00
10145;BME280;5113;41.822;23.564;2022-08-05T04:57:21;-11354.66;;;15.18;100.00
10145;BME280;5113;41.822;23.564;2022-08-05T05:00:36;-11366.66;;;15.62;100.00
10145;BME280;5113;41.822;23.564;2022-08-05T05:03:43;-11380.19;;;16.10;100.00
10145;BME280;5113;41.822;23.564;2022-08-05T05:06:49;-11371.28;;;15.78;100.00
10145;BME280;5113;41.822;23.564;2022-08-05T05:10:01;-11389.47;;;16.44;100.00
10145;BME280;5113;41.822;23.564;2022-08-05T05:13:12;-11391.03;;;16.49;100.00
10145;BME280;5113;41.822;23.564;2022-08-05T05:16:19;-11379.31;;;16.07;100.00
10145;BME280;5113;41.822;23.564;2022-08-05T05:19:33;-11396.09;;;16.68;100.00
10145;BME280;5113;41.822;23.564;2022-08-05T05:22:51;-11405.69;;;17.02;100.00
10145;BME280;5113;41.822;23.564;2022-08-05T05:25:57;-11414.13;;;17.33;100.00
10145;BME280;5113;41.822;23.564;2022-08-05T05:29:04;-11420.19;;;17.55;100.00
10145;BME280;5113;41.822;23.564;2022-08-05T05:32:20;-11421.31;;;17.59;100.00
10145;BME280;5113;41.822;23.564;2022-08-05T05:35:27;-11428.81;;;17.86;98.17
10145;BME280;5113;41.822;23.564;2022-08-05T05:38:42;-11444.88;;;18.43;97.43
10145;BME280;5113;41.822;23.564;2022-08-05T05:41:50;-11457.41;;;18.89;95.63
10145;BME280;5113;41.822;23.564;2022-08-05T05:44:58;-11430.78;;;17.93;94.72
10145;BME280;5113;41.822;23.564;2022-08-05T05:48:08;-11453.34;;;18.74;92.78
10145;BME280;5113;41.822;23.564;2022-08-05T05:51:20;-11450.50;;;18.64;91.83
10145;BME280;5113;41.822;23.564;2022-08-05T05:54:26;-11441.63;;;18.32;93.36
10145;BME280;5113;41.822;23.564;2022-08-05T05:57:52;-11461.78;;;19.04;89.92
10145;BME280;5113;41.822;23.564;2022-08-05T06:01:06;-11471.66;;;19.40;86.20
10145;BME280;5113;41.822;23.564;2022-08-05T06:04:18;-11485.91;;;19.91;84.45
10145;BME280;5113;41.822;23.564;2022-08-05T06:07:25;-11474.19;;;19.49;84.17
10145;BME280;5113;41.822;23.564;2022-08-05T06:10:45;-11482.94;;;19.81;83.74
10145;BME280;5113;41.822;23.564;2022-08-05T06:13:56;-11500.16;;;20.42;80.13
10145;BME280;5113;41.822;23.564;2022-08-05T06:17:04;-11503.69;;;20.55;80.23
10145;BME280;5113;41.822;23.564;2022-08-05T06:20:29;-11502.97;;;20.53;76.61
10145;BME280;5113;41.822;23.564;2022-08-05T06:23:36;-11511.44;;;20.83;73.37
10145;BME280;5113;41.822;23.564;2022-08-05T06:26:48;-11512.56;;;20.87;72.69
10145;BME280;5113;41.822;23.564;2022-08-05T06:29:56;-11516.94;;;21.03;70.53
10145;BME280;5113;41.822;23.564;2022-08-05T06:33:09;-11531.03;;;21.54;70.89
10145;BME280;5113;41.822;23.564;2022-08-05T06:36:24;-11521.72;;;21.20;65.58
10145;BME280;5113;41.822;23.564;2022-08-05T06:39:41;-11537.53;;;21.77;63.78
10145;BME280;5113;41.822;23.564;2022-08-05T06:42:48;-11534.28;;;21.65;65.00
10145;BME280;5113;41.822;23.564;2022-08-05T06:45:56;-11536.84;;;21.74;62.82
10145;BME280;5113;41.822;23.564;2022-08-05T06:49:07;-11543.03;;;21.97;63.22
10145;BME280;5113;41.822;23.564;2022-08-05T06:52:17;-11546.16;;;22.08;63.48
10145;BME280;5113;41.822;23.564;2022-08-05T06:55:41;-11554.47;;;22.38;62.75
10145;BME280;5113;41.822;23.564;2022-08-05T06:58:49;-11559.97;;;22.58;60.77
10145;BME280;5113;41.822;23.564;2022-08-05T07:01:55;-11572.13;;;23.01;60.05
10145;BME280;5113;41.822;23.564;2022-08-05T07:05:02;-11584.53;;;23.46;57.73
10145;BME280;5113;41.822;23.564;2022-08-05T07:08:20;-11582.84;;;23.40;58.61
10145;BME280;5113;41.822;23.564;2022-08-05T07:11:29;-11586.78;;;23.54;58.97
10145;BME280;5113;41.822;23.564;2022-08-05T07:14:41;-11604.72;;;24.19;56.57
10145;BME280;5113;41.822;23.564;2022-08-05T07:18:04;-11609.66;;;24.36;56.61
10145;BME280;5113;41.822;23.564;2022-08-05T07:21:15;-11593.00;;;23.77;57.99
10145;BME280;5113;41.822;23.564;2022-08-05T07:24:31;-11608.66;;;24.33;56.41
10145;BME280;5113;41.822;23.564;2022-08-05T07:27:47;-11630.97;;;25.13;55.84
10145;BME280;5113;41.822;23.564;2022-08-05T07:31:07;-11612.47;;;24.47;56.69
10145;BME280;5113;41.822;23.564;2022-08-05T07:34:14;-11624.06;;;24.88;56.22
10145;BME280;5113;41.822;23.564;2022-08-05T07:37:29;-11628.28;;;25.04;54.72
10145;BME280;5113;41.822;23.564;2022-08-05T07:40:44;-11638.75;;;25.41;54.03
10145;BME280;5113;41.822;23.564;2022-08-05T07:43:59;-11635.91;;;25.31;53.72
10145;BME280;5113;41.822;23.564;2022-08-05T07:47:07;-11649.34;;;25.79;54.88
10145;BME280;5113;41.822;23.564;2022-08-05T07:50:18;-11649.75;;;25.81;52.60
10145;BME280;5113;41.822;23.564;2022-08-05T07:53:36;-11664.72;;;26.35;52.11
10145;BME280;5113;41.822;23.564;2022-08-05T07:56:56;-11672.50;;;26.62;51.19
10145;BME280;5113;41.822;23.564;2022-08-05T08:00:21;-11667.41;;;26.44;51.35
10145;BME280;5113;41.822;23.564;2022-08-05T08:03:27;-11657.38;;;26.08;49.89
10145;BME280;5113;41.822;23.564;2022-08-05T08:06:48;-11663.59;;;26.30;48.64
10145;BME280;5113;41.822;23.564;2022-08-05T08:09:54;-11696.50;;;27.49;50.11
10145;BME280;5113;41.822;23.564;2022-08-05T08:13:02;-11679.56;;;26.88;46.14
10145;BME280;5113;41.822;23.564;2022-08-05T08:16:09;-11695.66;;;27.46;44.60
10145;BME280;5113;41.822;23.564;2022-08-05T08:19:35;-11706.53;;;27.85;46.09
10145;BME280;5113;41.822;23.564;2022-08-05T08:23:02;-11699.34;;;27.59;42.83
10145;BME280;5113;41.822;23.564;2022-08-05T08:26:08;-11712.03;;;28.05;42.21
10145;BME280;5113;41.822;23.564;2022-08-05T08:29:17;-11723.47;;;28.46;41.07
10145;BME280;5113;41.822;23.564;2022-08-05T08:32:43;-11715.16;;;28.16;39.24
10145;BME280;5113;41.822;23.564;2022-08-05T08:35:50;-11723.06;;;28.44;38.00
10145;BME280;5113;41.822;23.564;2022-08-05T08:39:17;-11732.53;;;28.78;38.51
10145;BME280;5113;41.822;23.564;2022-08-05T08:42:24;-11752.31;;;29.49;37.07
10145;BME280;5113;41.822;23.564;2022-08-05T08:45:53;-11755.28;;;29.60;39.46
10145;BME280;5113;41.822;23.564;2022-08-05T08:49:02;-11754.41;;;29.57;37.61
10145;BME280;5113;41.822;23.564;2022-08-05T08:52:30;-11754.84;;;29.58;37.77
10145;BME280;5113;41.822;23.564;2022-08-05T08:55:38;-11752.44;;;29.50;36.77
10145;BME280;5113;41.822;23.564;2022-08-05T08:59:05;-11752.72;;;29.51;37.07
10145;BME280;5113;41.822;23.564;2022-08-05T09:02:26;-11743.81;;;29.19;39.09
10145;BME280;5113;41.822;23.564;2022-08-05T09:05:33;-11749.75;;;29.40;37.51
10145;BME280;5113;41.822;23.564;2022-08-05T09:09:00;-11765.16;;;29.96;36.30
10145;BME280;5113;41.822;23.564;2022-08-05T09:12:08;-11781.13;;;30.53;36.91
10145;BME280;5113;41.822;23.564;2022-08-05T09:15:30;-11775.91;;;30.34;35.63
10145;BME280;5113;41.822;23.564;2022-08-05T09:18:42;-11786.22;;;30.71;35.50
10145;BME280;5113;41.822;23.564;2022-08-05T09:21:49;-11777.16;;;30.39;35.40
10145;BME280;5113;41.822;23.564;2022-08-05T09:25:18;-11790.16;;;30.85;35.56
10145;BME280;5113;41.822;23.564;2022-08-05T09:28:27;-11787.47;;;30.76;35.15
10145;BME280;5113;41.822;23.564;2022-08-05T09:31:36;-11804.31;;;31.36;34.27
10145;BME280;5113;41.822;23.564;2022-08-05T09:35:11;-11792.16;;;30.93;35.84
10145;BME280;5113;41.822;23.564;2022-08-05T09:38:31;-11808.41;;;31.51;33.89
10145;BME280;5113;41.822;23.564;2022-08-05T09:41:57;-11818.72;;;31.88;35.53
10145;BME280;5113;41.822;23.564;2022-08-05T09:45:08;-11799.22;;;31.18;35.65
10145;BME280;5113;41.822;23.564;2022-08-05T09:48:34;-11784.81;;;30.66;35.25
10145;BME280;5113;41.822;23.564;2022-08-05T09:51:43;-11783.09;;;30.60;36.65
10145;BME280;5113;41.822;23.564;2022-08-05T09:54:56;-11795.69;;;31.05;34.18
10145;BME280;5113;41.822;23.564;2022-08-05T09:58:11;-11802.31;;;31.29;35.13
10145;BME280;5113;41.822;23.564;2022-08-05T10:01:17;-11804.16;;;31.36;35.35
10145;BME280;5113;41.822;23.564;2022-08-05T10:04:36;-11805.72;;;31.41;33.88
10145;BME280;5113;41.822;23.564;2022-08-05T10:07:48;-11809.66;;;31.56;33.94
10145;BME280;5113;41.822;23.564;2022-08-05T10:11:15;-11824.09;;;32.07;33.37
10145;BME280;5113;41.822;23.564;2022-08-05T10:14:24;-11792.44;;;30.94;33.33
10145;BME280;5113;41.822;23.564;2022-08-05T10:17:34;-11812.78;;;31.67;32.25
10145;BME280;5113;41.822;23.564;2022-08-05T10:20:45;-11841.31;;;32.69;32.42
10145;BME280;5113;41.822;23.564;2022-08-05T10:23:54;-11839.91;;;32.64;33.58
10145;BME280;5113;41.822;23.564;2022-08-05T10:27:05;-11794.84;;;31.02;33.23
10145;BME280;5113;41.822;23.564;2022-08-05T10:30:12;-11801.75;;;31.27;34.00
10145;BME280;5113;41.822;23.564;2022-08-05T10:33:39;-11814.63;;;31.73;32.12
10145;BME280;5113;41.822;23.564;2022-08-05T10:36:46;-11777.88;;;30.41;34.47
10145;BME280;5113;41.822;23.564;2022-08-05T10:39:55;-11789.31;;;30.82;34.30
10145;BME280;5113;41.822;23.564;2022-08-05T10:43:30;-11782.25;;;30.57;34.05
10145;BME280;5113;41.822;23.564;2022-08-05T10:46:44;-11759.09;;;29.74;36.94
10145;BME280;5113;41.822;23.564;2022-08-05T10:49:59;-11754.41;;;29.57;34.98
10145;BME280;5113;41.822;23.564;2022-08-05T10:53:37;-11750.34;;;29.42;34.96
10145;BME280;5113;41.822;23.564;2022-08-05T10:56:51;-11747.50;;;29.32;35.30
10145;BME280;5113;41.822;23.564;2022-08-05T11:00:12;-11783.41;;;30.61;33.60
10145;BME280;5113;41.822;23.564;2022-08-05T11:03:24;-11769.81;;;30.12;33.93
10145;BME280;5113;41.822;23.564;2022-08-05T11:06:31;-11797.53;;;31.12;33.67
10145;BME280;5113;41.822;23.564;2022-08-05T11:09:43;-11823.53;;;32.05;32.48
10145;BME280;5113;41.822;23.564;2022-08-05T11:12:52;-11833.41;;;32.41;32.75
10145;BME280;5113;41.822;23.564;2022-08-05T11:16:22;-11816.03;;;31.78;31.98
10145;BME280;5113;41.822;23.564;2022-08-05T11:19:48;-11801.34;;;31.26;32.58
10145;BME280;5113;41.822;23.564;2022-08-05T11:23:42;-11798.38;;;31.15;35.40
10145;BME280;5113;41.822;23.564;2022-08-05T11:27:29;-11787.06;;;30.74;35.42
10145;BME280;5113;41.822;23.564;2022-08-05T11:31:25;-11760.78;;;29.80;36.83
10145;BME280;5113;41.822;23.564;2022-08-05T11:34:57;-11787.19;;;30.75;34.35
10145;BME280;5113;41.822;23.564;2022-08-05T11:38:04;-11773.91;;;30.27;35.54
10145;BME280;5113;41.822;23.564;2022-08-05T11:41:31;-11772.78;;;30.23;34.18
10145;BME280;5113;41.822;23.564;2022-08-05T11:45:01;-11776.88;;;30.38;34.02
10145;BME280;5113;41.822;23.564;2022-08-05T11:48:10;-11753.16;;;29.52;38.30
10145;BME280;5113;41.822;23.564;2022-08-05T11:51:18;-11755.13;;;29.60;36.81
10145;BME280;5113;41.822;23.564;2022-08-05T11:54:50;-11749.75;;;29.40;38.20
10145;BME280;5113;41.822;23.564;2022-08-05T11:57:59;-11767.84;;;30.05;36.45
10145;BME280;5113;41.822;23.564;2022-08-05T12:01:16;-11794.28;;;31.00;36.55
10145;BME280;5113;41.822;23.564;2022-08-05T12:04:26;-11804.31;;;31.36;34.36
10145;BME280;5113;41.822;23.564;2022-08-05T12:07:36;-11815.03;;;31.75;34.50
10145;BME280;5113;41.822;23.564;2022-08-05T12:11:03;-11828.47;;;32.23;32.35
10145;BME280;5113;41.822;23.564;2022-08-05T12:14:10;-11857.44;;;33.27;31.06
10145;BME280;5113;41.822;23.564;2022-08-05T12:17:17;-11828.31;;;32.23;34.26
10145;BME280;5113;41.822;23.564;2022-08-05T12:20:45;-11798.94;;;31.17;33.94
10145;BME280;5113;41.822;23.564;2022-08-05T12:23:57;-11813.34;;;31.69;33.81
10145;BME280;5113;41.822;23.564;2022-08-05T12:27:09;-11812.50;;;31.66;33.90
10145;BME280;5113;41.822;23.564;2022-08-05T12:30:36;-11831.16;;;32.33;31.10
10145;BME280;5113;41.822;23.564;2022-08-05T12:33:50;-11829.19;;;32.26;32.55
10145;BME280;5113;41.822;23.564;2022-08-05T12:37:00;-11828.47;;;32.23;32.03
10145;BME280;5113;41.822;23.564;2022-08-05T12:40:15;-11847.56;;;32.92;33.19
10145;BME280;5113;41.822;23.564;2022-08-05T12:43:32;-11864.50;;;33.53;29.49
10145;BME280;5113;41.822;23.564;2022-08-05T12:46:51;-11834.69;;;32.45;30.34
10145;BME280;5113;41.822;23.564;2022-08-05T12:49:58;-11838.22;;;32.58;30.75
10145;BME280;5113;41.822;23.564;2022-08-05T12:53:16;-11851.22;;;33.05;31.02
10145;BME280;5113;41.822;23.564;2022-08-05T12:56:23;-11857.16;;;33.26;30.06
10145;BME280;5113;41.822;23.564;2022-08-05T12:59:46;-11853.34;;;33.12;30.47
10145;BME280;5113;41.822;23.564;2022-08-05T13:03:12;-11846.69;;;32.89;29.59
10145;BME280;5113;41.822;23.564;2022-08-05T13:06:20;-11809.38;;;31.55;30.81
10145;BME280;5113;41.822;23.564;2022-08-05T13:09:29;-11804.59;;;31.37;31.69
10145;BME280;5113;41.822;23.564;2022-08-05T13:12:39;-11807.56;;;31.48;31.81
10145;BME280;5113;41.822;23.564;2022-08-05T13:15:54;-11782.25;;;30.57;32.20
10145;BME280;5113;41.822;23.564;2022-08-05T13:19:02;-11797.09;;;31.10;31.82
10145;BME280;5113;41.822;23.564;2022-08-05T13:22:07;-11844.28;;;32.80;31.06
10145;BME280;5113;41.822;23.564;2022-08-05T13:25:18;-11856.44;;;33.24;31.76
10145;BME280;5113;41.822;23.564;2022-08-05T13:28:45;-11847.69;;;32.92;29.78
10145;BME280;5113;41.822;23.564;2022-08-05T13:31:56;-11817.59;;;31.84;32.62
10145;BME280;5113;41.822;23.564;2022-08-05T13:35:08;-11805.84;;;31.42;31.84
10145;BME280;5113;41.822;23.564;2022-08-05T13:38:15;-11794.13;;;31.00;33.22
10145;BME280;5113;41.822;23.564;2022-08-05T13:41:39;-11786.50;;;30.72;32.54
10145;BME280;5113;41.822;23.564;2022-08-05T13:44:46;-11787.63;;;30.76;32.89
10145;BME280;5113;41.822;23.564;2022-08-05T13:47:55;-11773.50;;;30.26;33.46
10145;BME280;5113;41.822;23.564;2022-08-05T13:51:26;-11789.47;;;30.83;33.26
10145;BME280;5113;41.822;23.564;2022-08-05T13:54:44;-11791.88;;;30.92;33.95
10145;BME280;5113;41.822;23.564;2022-08-05T13:57:58;-11786.22;;;30.71;32.83
10145;BME280;5113;41.822;23.564;2022-08-05T14:01:05;-11801.19;;;31.25;31.19
10145;BME280;5113;41.822;23.564;2022-08-05T14:04:11;-11818.72;;;31.88;31.74
10145;BME280;5113;41.822;23.564;2022-08-05T14:07:38;-11829.47;;;32.27;30.46
10145;BME280;5113;41.822;23.564;2022-08-05T14:11:05;-11814.06;;;31.71;31.86
10145;BME280;5113;41.822;23.564;2022-08-05T14:14:27;-11794.28;;;31.00;32.44
10145;BME280;5113;41.822;23.564;2022-08-05T14:17:37;-11784.38;;;30.65;32.46
10145;BME280;5113;41.822;23.564;2022-08-05T14:20:46;-11788.91;;;30.81;32.58
10145;BME280;5113;41.822;23.564;2022-08-05T14:23:56;-11806.97;;;31.46;31.88
10145;BME280;5113;41.822;23.564;2022-08-05T14:27:04;-11834.81;;;32.46;31.63
10145;BME280;5113;41.822;23.564;2022-08-05T14:30:23;-11838.34;;;32.59;30.19
10145;BME280;5113;41.822;23.564;2022-08-05T14:33:31;-11848.81;;;32.96;31.18
10145;BME280;5113;41.822;23.564;2022-08-05T14:36:58;-11847.25;;;32.91;30.65
10145;BME280;5113;41.822;23.564;2022-08-05T14:40:06;-11836.25;;;32.51;30.22
10145;BME280;5113;41.822;23.564;2022-08-05T14:43:12;-11859.97;;;33.36;30.43
10145;BME280;5113;41.822;23.564;2022-08-05T14:46:22;-11827.63;;;32.20;31.05
10145;BME280;5113;41.822;23.564;2022-08-05T14:49:33;-11818.44;;;31.87;30.76
10145;BME280;5113;41.822;23.564;2022-08-05T14:52:59;-11811.78;;;31.63;32.14
10145;BME280;5113;41.822;23.564;2022-08-05T14:56:06;-11795.81;;;31.06;32.66
10145;BME280;5113;41.822;23.564;2022-08-05T14:59:15;-11790.44;;;30.86;33.52
10145;BME280;5113;41.822;23.564;2022-08-05T15:02:26;-11802.59;;;31.30;33.50
10145;BME280;5113;41.822;23.564;2022-08-05T15:05:34;-11798.22;;;31.14;33.17
10145;BME280;5113;41.822;23.564;2022-08-05T15:09:00;-11810.09;;;31.57;33.72
10145;BME280;5113;41.822;23.564;2022-08-05T15:12:08;-11815.03;;;31.75;33.53
10145;BME280;5113;41.822;23.564;2022-08-05T15:15:20;-11802.59;;;31.30;33.44
10145;BME280;5113;41.822;23.564;2022-08-05T15:18:47;-11785.22;;;30.68;34.74
10145;BME280;5113;41.822;23.564;2022-08-05T15:21:55;-11804.72;;;31.38;33.59
10145;BME280;5113;41.822;23.564;2022-08-05T15:25:05;-11796.09;;;31.07;33.44
10145;BME280;5113;41.822;23.564;2022-08-05T15:28:17;-11888.41;;;34.38;29.71
10145;BME280;5113;41.822;23.564;2022-08-05T15:31:30;-11816.03;;;31.78;33.38
10145;BME280;5113;41.822;23.564;2022-08-05T15:34:40;-11764.88;;;29.95;35.42
10145;BME280;5113;41.822;23.564;2022-08-05T15:37:46;-11769.53;;;30.11;36.13
10145;BME280;5113;41.822;23.564;2022-08-05T15:41:12;-11765.31;;;29.96;36.26
10145;BME280;5113;41.822;23.564;2022-08-05T15:44:27;-11754.84;;;29.58;36.95
10145;BME280;5113;41.822;23.564;2022-08-05T15:47:34;-11750.06;;;29.41;37.72
10145;BME280;5113;41.822;23.564;2022-08-05T15:50:45;-11740.72;;;29.08;37.92
10145;BME280;5113;41.822;23.564;2022-08-05T15:53:52;-11747.78;;;29.33;37.26
10145;BME280;5113;41.822;23.564;2022-08-05T15:57:03;-11745.09;;;29.23;37.80
10145;BME280;5113;41.822;23.564;2022-08-05T16:00:12;-11747.50;;;29.32;37.39
10145;BME280;5113;41.822;23.564;2022-08-05T16:03:33;-11741.84;;;29.12;38.32
10145;BME280;5113;41.822;23.564;2022-08-05T16:06:46;-11742.13;;;29.13;38.32
10145;BME280;5113;41.822;23.564;2022-08-05T16:09:52;-11732.53;;;28.78;38.69
10145;BME280;5113;41.822;23.564;2022-08-05T16:12:58;-11726.59;;;28.57;40.03
10145;BME280;5113;41.822;23.564;2022-08-05T16:16:05;-11722.78;;;28.43;40.08
10145;BME280;5113;41.822;23.564;2022-08-05T16:19:13;-11719.09;;;28.30;40.41
10145;BME280;5113;41.822;23.564;2022-08-05T16:22:41;-11714.44;;;28.13;40.51
10145;BME280;5113;41.822;23.564;2022-08-05T16:25:47;-11714.03;;;28.12;41.13
10145;BME280;5113;41.822;23.564;2022-08-05T16:28:59;-11709.22;;;27.94;41.02
10145;BME280;5113;41.822;23.564;2022-08-05T16:32:06;-11708.66;;;27.92;41.05
10145;BME280;5113;41.822;23.564;2022-08-05T16:35:14;-11704.56;;;27.78;41.09
10145;BME280;5113;41.822;23.564;2022-08-05T16:38:23;-11696.22;;;27.48;42.99
10145;BME280;5113;41.822;23.564;2022-08-05T16:41:32;-11698.63;;;27.56;41.77
10145;BME280;5113;41.822;23.564;2022-08-05T16:44:58;-11692.41;;;27.34;42.25
10145;BME280;5113;41.822;23.564;2022-08-05T16:48:04;-11701.16;;;27.66;42.11
10145;BME280;5113;41.822;23.564;2022-08-05T16:51:14;-11694.81;;;27.43;42.48
10145;BME280;5113;41.822;23.564;2022-08-05T16:54:22;-11687.88;;;27.18;44.00